Keauhou, Hawaii
Current Conditions -  °F | °C
As of 8:53 AM on Thursday 30 Oct 2014 (Local Time) from PHKO Reporting Station
Broken Clouds Broken Clouds  
Wind Chill: 81°   Ceiling: 3500
Heat Index: 84°   Visibility: 10mi
Dew Point: 70°   Wind: 9mph
Humidity: 69%   Direction: 170°S
Pressure: 30.02"   Gusts: NA
Location:  19.56°N, 155.96°W
Report Text: PHKO 301853Z 17008KT 10SM BKN035 27/21 A3002 RMK AO2 SLP165 T02720211
Loading
Personal Weather Stations






























Interactive Weather Map
Tropical Storm Tracking
New forecast layout! Learn more

10-Day Weather Forecast

Advertisements
Track Severe Weather on mobile